L'etrangere — FW5161 — position and weather

sailwx.info

Track history (hours):
 
Tides and Currents Weather Stations Pressure Air Temp Water Temp Dewpoint Dewpoint Depression Visibility Wind Speed Wind Dir Waves Ship Positions

L'etrangere

Last reported at 2018-Jun-29 08:33 UTC. Time now 2018-Jul-20 10:42 UTC.
Position N 47°37' W 003°27'.
Warning: this ship's position is 21 days out of date.

Length 10 m.

Type: Sailing vessel. MMSI: 227382420.

Date/timePositionNaut miles runAvg speedWind from/ knotsBaromVisibWave heightAir tempDewpointWater temp
2018-Jun-29 08:33N 47°37' W 003°27'  
2018-Jun-26 16:30N 47°44' W 003°21'2 3.9
2018-Jun-26 16:00N 47°42' W 003°22'2 3.6
2018-Jun-26 15:30N 47°41' W 003°22'2 4.6
2018-Jun-26 15:00N 47°40' W 003°19'6 0.8
2018-Jun-26 07:20N 47°35' W 003°14'2 5.3
2018-Jun-26 07:00N 47°33' W 003°14'3 5.1
2018-Jun-26 06:28N 47°30' W 003°15'3 5.4
2018-Jun-26 05:57N 47°27' W 003°14'2 0.1
2018-Jun-25 12:49N 47°26' W 003°16'1 3.7
2018-Jun-25 12:30N 47°27' W 003°17'2 3.6
2018-Jun-25 12:00N 47°29' W 003°16'2 3.6
2018-Jun-25 11:22N 47°31' W 003°16'1 3.9
2018-Jun-25 11:00N 47°33' W 003°17'2 3.6
2018-Jun-25 10:30N 47°34' W 003°18'1 2.7
2018-Jun-25 10:00N 47°36' W 003°18'2 3.8
2018-Jun-25 09:28N 47°38' W 003°20'2 3.5
2018-Jun-25 09:00N 47°39' W 003°21'7 0.3
2018-Jun-24 08:59N 47°45' W 003°19'0 0.0
2018-Jun-22 18:29N 47°45' W 003°19'1 2.8
2018-Jun-22 18:00N 47°44' W 003°20'2 3.8
2018-Jun-22 17:30N 47°43' W 003°22'2 3.8
2018-Jun-22 17:00N 47°41' W 003°24'2 3.4
2018-Jun-22 16:30N 47°40' W 003°25'2 3.8
2018-Jun-22 16:00N 47°38' W 003°24'2 3.8
2018-Jun-22 15:30N 47°36' W 003°23'1 1.9
2018-Jun-22 15:00N 47°35' W 003°23'2 3.0
2018-Jun-22 14:30N 47°36' W 003°25'  
Track history (hours):
 
Tides and Currents Weather Stations Pressure Air Temp Water Temp Dewpoint Dewpoint Depression Visibility Wind Speed Wind Dir Waves Ship Positions

L'etrangere

Last reported at 2018-Jun-29 08:33 UTC. Time now 2018-Jul-20 10:42 UTC.
Position N 47°37' W 003°27'.
Warning: this ship's position is 21 days out of date.

Length 10 m.

Type: Sailing vessel. MMSI: 227382420.

Date/timePositionNaut miles runAvg speedWind from/ knotsBaromVisibWave heightAir tempDewpointWater temp
2018-Jun-29 08:33N 47°37' W 003°27'  
2018-Jun-26 16:30N 47°44' W 003°21'2 3.9
2018-Jun-26 16:00N 47°42' W 003°22'2 3.6
2018-Jun-26 15:30N 47°41' W 003°22'2 4.6
2018-Jun-26 15:00N 47°40' W 003°19'6 0.8
2018-Jun-26 07:20N 47°35' W 003°14'2 5.3
2018-Jun-26 07:00N 47°33' W 003°14'3 5.1
2018-Jun-26 06:28N 47°30' W 003°15'3 5.4
2018-Jun-26 05:57N 47°27' W 003°14'2 0.1
2018-Jun-25 12:49N 47°26' W 003°16'1 3.7
2018-Jun-25 12:30N 47°27' W 003°17'2 3.6
2018-Jun-25 12:00N 47°29' W 003°16'2 3.6
2018-Jun-25 11:22N 47°31' W 003°16'1 3.9
2018-Jun-25 11:00N 47°33' W 003°17'2 3.6
2018-Jun-25 10:30N 47°34' W 003°18'1 2.7
2018-Jun-25 10:00N 47°36' W 003°18'2 3.8
2018-Jun-25 09:28N 47°38' W 003°20'2 3.5
2018-Jun-25 09:00N 47°39' W 003°21'7 0.3
2018-Jun-24 08:59N 47°45' W 003°19'0 0.0
2018-Jun-22 18:29N 47°45' W 003°19'1 2.8
2018-Jun-22 18:00N 47°44' W 003°20'2 3.8
2018-Jun-22 17:30N 47°43' W 003°22'2 3.8
2018-Jun-22 17:00N 47°41' W 003°24'2 3.4
2018-Jun-22 16:30N 47°40' W 003°25'2 3.8
2018-Jun-22 16:00N 47°38' W 003°24'2 3.8
2018-Jun-22 15:30N 47°36' W 003°23'1 1.9
2018-Jun-22 15:00N 47°35' W 003°23'2 3.0
2018-Jun-22 14:30N 47°36' W 003°25'  

Dump ship's entire track history